Puropanmaru No.3 — JD3322 — position and weather

sailwx.info

Track history (hours):
 
Tides and Currents Weather Stations Pressure Air Temp Water Temp Dewpoint Dewpoint Depression Visibility Wind Speed Wind Dir Waves Ship Positions

Puropanmaru No.3

Last reported at 2017-Jul-25 06:09 UTC. Time now 2017-Jul-25 06:48 UTC.
Position N 34°07' E 134°60'.

Length 68 m; draft 4.5 m.

Type: Tanker. MMSI: 431003365.

Date/timePositionNaut miles runAvg speedWind from/ knotsBaromVisibWave heightAir tempDewpointWater temp
2017-Jul-25 06:09N 34°07' E 134°60'213.1
2017-Jul-25 06:00N 34°09' E 134°60'1714.3
2017-Jul-25 04:48N 34°26' E 135°01'413.3
2017-Jul-25 04:28N 34°31' E 135°02'613.3
2017-Jul-25 03:59N 34°37' E 135°01'3 0.1
2017-Jul-24 09:38N 34°38' E 134°58'315.1
2017-Jul-24 09:27N 34°37' E 135°01'510.5
2017-Jul-24 08:59N 34°33' E 135°03'714.6
2017-Jul-24 08:28N 34°27' E 134°57'2 0.1
2017-Jul-23 07:53N 34°26' E 134°55'2 4.3
2017-Jul-23 07:27N 34°25' E 134°56'1013.4
2017-Jul-23 06:44N 34°15' E 134°59'311.8
2017-Jul-23 06:30N 34°13' E 134°60'22510.2
2017-Jul-22 08:28N 35°01' E 139°27'612.0
2017-Jul-22 08:00N 35°03' E 139°33'612.5
2017-Jul-22 07:30N 35°06' E 139°40'611.8
2017-Jul-22 07:00N 35°10' E 139°45'611.5
2017-Jul-22 06:30N 35°16' E 139°46'611.2
2017-Jul-22 06:00N 35°21' E 139°42'510.9
2017-Jul-22 05:30N 35°26' E 139°45'612.0
2017-Jul-22 05:00N 35°29' E 139°51'7 1.2
2017-Jul-21 23:30N 35°31' E 139°59'4 9.1
2017-Jul-21 23:00N 35°29' E 139°55'0 0.0
2017-Jul-21 22:28N 35°29' E 139°55'0 0.0
2017-Jul-21 21:58N 35°29' E 139°55'0 0.0
2017-Jul-21 21:28N 35°29' E 139°55'0 0.0
2017-Jul-21 20:55N 35°29' E 139°55'0 0.0
2017-Jul-21 20:25N 35°29' E 139°55'0 0.0
2017-Jul-21 19:55N 35°29' E 139°55'0 0.0
2017-Jul-21 19:28N 35°29' E 139°55'0 0.0
2017-Jul-21 18:58N 35°29' E 139°55'0 0.0
2017-Jul-21 18:25N 35°29' E 139°55'0 0.0
2017-Jul-21 17:58N 35°29' E 139°55'0 0.0
2017-Jul-21 17:28N 35°29' E 139°55'0 0.0
2017-Jul-21 16:58N 35°29' E 139°55'0 0.0
2017-Jul-21 16:28N 35°29' E 139°55'0 0.0
2017-Jul-21 15:58N 35°29' E 139°55'0 0.2
2017-Jul-21 15:30N 35°29' E 139°54'612.5
2017-Jul-21 15:00N 35°26' E 139°48'612.7
2017-Jul-21 14:31N 35°20' E 139°44'611.9
2017-Jul-21 14:00N 35°14' E 139°47'713.0
2017-Jul-21 13:30N 35°08' E 139°46'713.1
2017-Jul-21 13:01N 35°02' E 139°44'9 0.4
2017-Jul-20 13:55N 34°53' E 139°47'512.9
2017-Jul-20 13:30N 34°58' E 139°43'713.4
2017-Jul-20 13:00N 35°04' E 139°44'613.1
2017-Jul-20 12:30N 35°11' E 139°46'611.6
2017-Jul-20 12:00N 35°16' E 139°45'612.1
2017-Jul-20 11:30N 35°22' E 139°42'611.4
2017-Jul-20 11:00N 35°27' E 139°47'612.3
2017-Jul-20 10:30N 35°30' E 139°53'9 1.4
2017-Jul-20 04:30N 35°32' E 140°03'5 7.7
2017-Jul-20 03:54N 35°30' E 139°58'4 8.9
2017-Jul-20 03:30N 35°29' E 139°54'0 0.0
2017-Jul-20 02:44N 35°29' E 139°54'0 0.0
2017-Jul-19 18:17N 35°29' E 139°54'0 0.0
2017-Jul-19 17:47N 35°29' E 139°54'0 0.0
2017-Jul-19 17:26N 35°29' E 139°54'0 0.0
2017-Jul-19 16:59N 35°29' E 139°54'0 0.0
2017-Jul-19 15:08N 35°29' E 139°54'0 0.0
2017-Jul-19 14:50N 35°29' E 139°54'0 0.0
2017-Jul-19 11:11N 35°29' E 139°54'0 0.0
2017-Jul-19 10:54N 35°29' E 139°54'4 9.0
2017-Jul-19 10:30N 35°27' E 139°50'713.2
2017-Jul-19 10:00N 35°22' E 139°45'611.4
2017-Jul-19 09:30N 35°16' E 139°46'612.2
2017-Jul-19 09:00N 35°10' E 139°46'713.2
2017-Jul-19 08:30N 35°04' E 139°43'713.4
2017-Jul-19 08:00N 34°60' E 139°36'23411.4
2017-Jul-18 11:25N 34°06' E 134°59'513.2
2017-Jul-18 11:00N 34°12' E 134°59'1213.9
2017-Jul-18 10:06N 34°24' E 134°56'8 0.3
2017-Jul-17 06:16N 34°31' E 135°01'312.1
2017-Jul-17 06:00N 34°34' E 135°02'215 5.4
2017-Jul-15 14:00N 34°59' E 139°23'612.5
2017-Jul-15 13:30N 35°02' E 139°30'611.9
2017-Jul-15 13:00N 35°04' E 139°36'612.1
2017-Jul-15 12:30N 35°07' E 139°43'612.4
2017-Jul-15 12:00N 35°13' E 139°46'612.0
2017-Jul-15 11:30N 35°18' E 139°44'612.1
2017-Jul-15 11:00N 35°24' E 139°43'612.6
2017-Jul-15 10:30N 35°28' E 139°49'  
Track history (hours):
 
Tides and Currents Weather Stations Pressure Air Temp Water Temp Dewpoint Dewpoint Depression Visibility Wind Speed Wind Dir Waves Ship Positions

Puropanmaru No.3

Last reported at 2017-Jul-25 06:09 UTC. Time now 2017-Jul-25 06:48 UTC.
Position N 34°07' E 134°60'.

Length 68 m; draft 4.5 m.

Type: Tanker. MMSI: 431003365.

Date/timePositionNaut miles runAvg speedWind from/ knotsBaromVisibWave heightAir tempDewpointWater temp
2017-Jul-25 06:09N 34°07' E 134°60'213.1
2017-Jul-25 06:00N 34°09' E 134°60'1714.3
2017-Jul-25 04:48N 34°26' E 135°01'413.3
2017-Jul-25 04:28N 34°31' E 135°02'613.3
2017-Jul-25 03:59N 34°37' E 135°01'3 0.1
2017-Jul-24 09:38N 34°38' E 134°58'315.1
2017-Jul-24 09:27N 34°37' E 135°01'510.5
2017-Jul-24 08:59N 34°33' E 135°03'714.6
2017-Jul-24 08:28N 34°27' E 134°57'2 0.1
2017-Jul-23 07:53N 34°26' E 134°55'2 4.3
2017-Jul-23 07:27N 34°25' E 134°56'1013.4
2017-Jul-23 06:44N 34°15' E 134°59'311.8
2017-Jul-23 06:30N 34°13' E 134°60'22510.2
2017-Jul-22 08:28N 35°01' E 139°27'612.0
2017-Jul-22 08:00N 35°03' E 139°33'612.5
2017-Jul-22 07:30N 35°06' E 139°40'611.8
2017-Jul-22 07:00N 35°10' E 139°45'611.5
2017-Jul-22 06:30N 35°16' E 139°46'611.2
2017-Jul-22 06:00N 35°21' E 139°42'510.9
2017-Jul-22 05:30N 35°26' E 139°45'612.0
2017-Jul-22 05:00N 35°29' E 139°51'7 1.2
2017-Jul-21 23:30N 35°31' E 139°59'4 9.1
2017-Jul-21 23:00N 35°29' E 139°55'0 0.0
2017-Jul-21 22:28N 35°29' E 139°55'0 0.0
2017-Jul-21 21:58N 35°29' E 139°55'0 0.0
2017-Jul-21 21:28N 35°29' E 139°55'0 0.0
2017-Jul-21 20:55N 35°29' E 139°55'0 0.0
2017-Jul-21 20:25N 35°29' E 139°55'0 0.0
2017-Jul-21 19:55N 35°29' E 139°55'0 0.0
2017-Jul-21 19:28N 35°29' E 139°55'0 0.0
2017-Jul-21 18:58N 35°29' E 139°55'0 0.0
2017-Jul-21 18:25N 35°29' E 139°55'0 0.0
2017-Jul-21 17:58N 35°29' E 139°55'0 0.0
2017-Jul-21 17:28N 35°29' E 139°55'0 0.0
2017-Jul-21 16:58N 35°29' E 139°55'0 0.0
2017-Jul-21 16:28N 35°29' E 139°55'0 0.0
2017-Jul-21 15:58N 35°29' E 139°55'0 0.2
2017-Jul-21 15:30N 35°29' E 139°54'612.5
2017-Jul-21 15:00N 35°26' E 139°48'612.7
2017-Jul-21 14:31N 35°20' E 139°44'611.9
2017-Jul-21 14:00N 35°14' E 139°47'713.0
2017-Jul-21 13:30N 35°08' E 139°46'713.1
2017-Jul-21 13:01N 35°02' E 139°44'9 0.4
2017-Jul-20 13:55N 34°53' E 139°47'512.9
2017-Jul-20 13:30N 34°58' E 139°43'713.4
2017-Jul-20 13:00N 35°04' E 139°44'613.1
2017-Jul-20 12:30N 35°11' E 139°46'611.6
2017-Jul-20 12:00N 35°16' E 139°45'612.1
2017-Jul-20 11:30N 35°22' E 139°42'611.4
2017-Jul-20 11:00N 35°27' E 139°47'612.3
2017-Jul-20 10:30N 35°30' E 139°53'9 1.4
2017-Jul-20 04:30N 35°32' E 140°03'5 7.7
2017-Jul-20 03:54N 35°30' E 139°58'4 8.9
2017-Jul-20 03:30N 35°29' E 139°54'0 0.0
2017-Jul-20 02:44N 35°29' E 139°54'0 0.0
2017-Jul-19 18:17N 35°29' E 139°54'0 0.0
2017-Jul-19 17:47N 35°29' E 139°54'0 0.0
2017-Jul-19 17:26N 35°29' E 139°54'0 0.0
2017-Jul-19 16:59N 35°29' E 139°54'0 0.0
2017-Jul-19 15:08N 35°29' E 139°54'0 0.0
2017-Jul-19 14:50N 35°29' E 139°54'0 0.0
2017-Jul-19 11:11N 35°29' E 139°54'0 0.0
2017-Jul-19 10:54N 35°29' E 139°54'4 9.0
2017-Jul-19 10:30N 35°27' E 139°50'713.2
2017-Jul-19 10:00N 35°22' E 139°45'611.4
2017-Jul-19 09:30N 35°16' E 139°46'612.2
2017-Jul-19 09:00N 35°10' E 139°46'713.2
2017-Jul-19 08:30N 35°04' E 139°43'713.4
2017-Jul-19 08:00N 34°60' E 139°36'23411.4
2017-Jul-18 11:25N 34°06' E 134°59'513.2
2017-Jul-18 11:00N 34°12' E 134°59'1213.9
2017-Jul-18 10:06N 34°24' E 134°56'8 0.3
2017-Jul-17 06:16N 34°31' E 135°01'312.1
2017-Jul-17 06:00N 34°34' E 135°02'215 5.4
2017-Jul-15 14:00N 34°59' E 139°23'612.5
2017-Jul-15 13:30N 35°02' E 139°30'611.9
2017-Jul-15 13:00N 35°04' E 139°36'612.1
2017-Jul-15 12:30N 35°07' E 139°43'612.4
2017-Jul-15 12:00N 35°13' E 139°46'612.0
2017-Jul-15 11:30N 35°18' E 139°44'612.1
2017-Jul-15 11:00N 35°24' E 139°43'612.6
2017-Jul-15 10:30N 35°28' E 139°49'  

Dump ship's entire track history